Aviation Digital Data Service (ADDS)

Output produced by METARs form (1001 UTC 19 January 2019)
found at http://www.aviationweather.gov/metar/data/
 
UKKM 190930Z 28006MPS CAVOK M02/M06 Q1019 R33/720345 NOSIG
TAF UKKM 190601Z 1906/2006 26003G08MPS 9999 BKN020 TXM03/1912Z TNM10/2005Z 
     TEMPO 1906/1912 29006G11MPS 3000 -SHSN BKN007 SCT012CB 
     BECMG 1916/1917 22004MPS 
     TEMPO 1920/2006 2000 BR SCT005
       
UKBB 190930Z 26003MPS CAVOK M02/M06 Q1020 R18L/811045 R18R/811095 NOSIG
TAF UKBB 190502Z 1906/2006 29006G12MPS 6000 BKN012 TXM04/1912Z TNM07/1906Z 
     TEMPO 1906/1912 2100 -SHSN BKN007 SCT015CB 
     BECMG 1915/1917 25003G08MPS 
     TEMPO 1921/2006 VRB01MPS 2000 BR SCT005
       
UKLN 190800Z 00000MPS 9999 BKN039 M02/M04 Q1023 R33/990240 NOSIG
TAF UKLN 190508Z 1906/1915 30005MPS 9999 BKN033 TXM01/1912Z TNM04/1906Z 
     TEMPO 1906/1908 2100 BR BKN020
       
UKDD 190930Z 34007MPS 6000 -SN OVC007 00/M00 Q1016 R26/250540 NOSIG
TAF AMD UKDD 190903Z 1909/2006 33005G10MPS 2100 -SN BR OVC006 TX00/1910Z
TNM08/1922Z 
     TEMPO 1909/1912 1000 SN OVC003 
     FM191200 31006G11MPS 9999 BKN012 
     BECMG 1918/1920 VRB01MPS 2100 BR BKN007 
     TEMPO 1920/2006 0200 FZFG VV001
       
UKLI 190930Z 22002MPS CAVOK 00/M04 Q1023 R28/450530 NOSIG
TAF UKLI 190805Z 1909/1918 VRB01MPS 9999 SCT030 TXM01/1912Z TNM05/1918Z 
     TEMPO 1915/1918 12003MPS 2100 BR BKN020
       
UKDR 190930Z 01010MPS CAVOK M01/M04 Q1019 R36/590240 NOSIG
TAF AMD UKDR 190835Z 1908/2006 34005MPS 4000 BR OVC011 TX00/1908Z TNM10/2004Z 
     TEMPO 1908/1912 36008G13MPS 2100 -SHSN BR BKN005 SCT015CB 
     BECMG 1915/1917 VRB01MPS 2100 BR BKN007
       
UKLL 190930Z 28003MPS 250V310 CAVOK M02/M06 Q1022 R31/CLRD// NOSIG
TAF UKLL 190504Z 1906/2006 VRB01MPS 9999 BKN010 TXM01/1912Z TNM06/2003Z 
     TEMPO 1906/1908 2100 BR SCT005 
     TEMPO 1918/2006 2100 BR SCT007
       
UKDE 190930Z 31004MPS 2100 BR OVC006 00/00 Q1016 R02R/290358 BECMG 2100 BR BKN005
TAF UKDE 190812Z 1909/1918 30005G10MPS 1400 BR BKN004 SCT015CB TX00/1912Z
TNM05/1918Z 
     TEMPO 1909/1911 0500 SHSN FZFG VV002 
     PROB40 
     TEMPO 1909/1911 -FZRA 
     BECMG 1911/1912 2100 BR BKN007 
     TEMPO 1912/1915 34007G12MPS
       
UKON 190900Z 35007MPS 9999 SCT016CB 02/M00 Q1020 NOSIG
TAF UKON 190802Z 1909/1918 35006G12MPS 9999 BKN010 BKN020CB TX03/1912Z
TNM03/1918Z 
     TEMPO 1909/1915 2100 -SHSN BR BKN007 BKN015CB
       
UKOO 190930Z 35008MPS CAVOK 02/M03 Q1021 R34/190056 NOSIG
TAF UKOO 190509Z 1906/2006 35007G14MPS 2100 BR BKN007 SCT015CB TX04/1912Z
TNM01/2002Z 
     PROB40 
     TEMPO 1906/1910 0300 -SHSN FG VV002 
     BECMG 1916/1917 32003MPS
       
UKHH 190930Z 32005MPS 5000 -SN BR BKN007 OVC021 M01/M02 Q1015 R25/71//62 BECMG 0400 +SN OVC001
TAF AMD UKHH 190716Z 1907/2006 28005MPS 0400 +SN OVC001 TXM00/1907Z TNM11/2003Z 
     TEMPO 1907/1910 1200 SHSN BR BKN003 BKN015CB 
     PROB40 
     TEMPO 1907/1910 -FZRASN 
     BECMG 1910/1912 30003MPS 2100 BR BKN007 
     TEMPO 1921/2006 0400 FZFG VV002
       
UKLR 190930Z 27007MPS 9999 BKN016 M04/M06 Q1021 NOSIG
TAF COR UKLR 190815Z 1909/1918 26006MPS 9999 BKN009 TXM02/1912Z TXM05/1918Z 
     TEMPO 1909/1918 2100 BR BKN007
       
UKLU 190930Z 00000MPS 9999 NSC M02/M06 Q1022 R10/290145 NOSIG
TAF UKLU 190806Z 1909/1918 VRB01MPS 9999 NSC TXM01/1913Z TNM04/1909Z
       
UKKK 190930Z 27004MPS CAVOK M02/M06 Q1019 R26/810345 NOSIG
TAF UKKK 190502Z 1906/2006 26003G08MPS 9999 BKN010 TXM03/1912Z TNM08/2003Z 
     TEMPO 1907/1914 29005G11MPS 2100 -SHSN BKN007 BKN015CB 
     BECMG 1922/1924 23003G08MPS 
     TEMPO 2000/2006 2000 BR SCT005